Waterloo, NY

2:09 AM EDT on July 23, 2017 (GMT -0400)
State Street | | Change Station

Elev 499 ft 42.92 °N, 76.80 °W | Updated 5 seconds ago

Mostly Cloudy
Mostly Cloudy
66.4 °F
Feels Like 66.4 °F
N
0.0
Wind Variable Wind from East
Gusts 0.0 mph

Today
High -- | Low -- °F
--% Chance of Precip.
Yesterday
High -- | Low -- °F
Precip. -- in
Pressure 29.79 in
Visibility 8.0 miles
Clouds Mostly Cloudy 9500 ft
Dew Point 65 °F
Humidity 95%
Rainfall 0.00 in
Snow Depth Not available.
5:49 AM 8:37 PM
Waning Crescent, 0% visible
METAR KPEO 230553Z AUTO 00000KT 8SM BKN095 19/17 A2980 RMK AO2 SLP087 T01890172 10228 20183 58006
Pressure 29.79 in
Visibility 8.0 miles
Clouds Mostly Cloudy 9500 ft
Dew Point 65 °F
Humidity 95%
Rainfall 0.00 in
Snow Depth Not available.
5:49 AM 8:37 PM
Waning Crescent, 0% visible
METAR KPEO 230553Z AUTO 00000KT 8SM BKN095 19/17 A2980 RMK AO2 SLP087 T01890172 10228 20183 58006

Get Severe Weather Alerts

Thanks for signing up!

Be on the lookout for a verification email in your inbox.

You'll start receiving the daily forecast at 6 AM.

×

10-Day Weather Forecast

Almanac

Astronomy

Jul. 23, 2017 Rise Set
Actual Time
Civil Twilight
Nautical Twilight
Astronomical Twilight
Moon
Length of Visible Light
Length of Day
Tomorrow will be .
, % of the Moon is Illuminated

Today's Extremes

State Highs State Lows

Community

WunderPhotos

Category 6

Welcome to Category 6. This is the collective home for Weather Underground's featured writeups by Dr. Jeff Masters (right), Bob Henson (left), Chris Burt, and other regular contributors.

Nearby

Air Quality

  Air Quality AQ Index Pollutant
Not available.

Snow Depth

Station Depth Elevation

Earthquake Activity

City Distance Mag. Time & Date
Minimum magnitude displayed is 2.5.

Coastal Water Temperatures

Place Temperature

Stations

Nearby Weather Stations

Station Location Temp. Windchill Dew Point Humidity Wind Precip. Elev Updated Type
                   

Watches & Warnings

There are currently no watches in effect.